sensor_id;sensor_type;location;lat;lon;timestamp;temperature;humidity
6018;DHT22;3037;51.068;13.780;2023-07-13T00:02:18;20.80;1.00
6018;DHT22;3037;51.068;13.780;2023-07-13T00:04:44;20.80;1.00
6018;DHT22;3037;51.068;13.780;2023-07-13T00:07:09;20.80;1.00
6018;DHT22;3037;51.068;13.780;2023-07-13T00:09:35;21.00;1.00
6018;DHT22;3037;51.068;13.780;2023-07-13T00:12:01;21.00;1.00
6018;DHT22;3037;51.068;13.780;2023-07-13T00:14:28;21.00;1.00
6018;DHT22;3037;51.068;13.780;2023-07-13T00:16:54;21.00;1.00
6018;DHT22;3037;51.068;13.780;2023-07-13T00:19:20;21.00;1.00
6018;DHT22;3037;51.068;13.780;2023-07-13T00:21:46;21.10;1.00
6018;DHT22;3037;51.068;13.780;2023-07-13T00:24:14;21.10;1.00
6018;DHT22;3037;51.068;13.780;2023-07-13T00:26:41;21.10;1.00
6018;DHT22;3037;51.068;13.780;2023-07-13T00:29:11;21.10;1.00
6018;DHT22;3037;51.068;13.780;2023-07-13T00:31:36;21.20;1.00
6018;DHT22;3037;51.068;13.780;2023-07-13T00:34:03;21.20;1.00
6018;DHT22;3037;51.068;13.780;2023-07-13T00:36:30;21.20;1.00
6018;DHT22;3037;51.068;13.780;2023-07-13T00:38:55;21.20;1.00
6018;DHT22;3037;51.068;13.780;2023-07-13T00:41:21;21.20;1.00
6018;DHT22;3037;51.068;13.780;2023-07-13T00:43:46;21.10;1.00
6018;DHT22;3037;51.068;13.780;2023-07-13T00:48:38;20.90;1.00
6018;DHT22;3037;51.068;13.780;2023-07-13T00:51:04;20.80;75.00
6018;DHT22;3037;51.068;13.780;2023-07-13T00:53:31;20.80;1.00
6018;DHT22;3037;51.068;13.780;2023-07-13T00:55:56;20.70;99.90
6018;DHT22;3037;51.068;13.780;2023-07-13T00:58:25;20.50;1.00
6018;DHT22;3037;51.068;13.780;2023-07-13T01:00:51;20.40;99.90
6018;DHT22;3037;51.068;13.780;2023-07-13T01:03:18;20.30;99.90
6018;DHT22;3037;51.068;13.780;2023-07-13T01:05:44;20.30;1.00
6018;DHT22;3037;51.068;13.780;2023-07-13T01:08:12;20.20;19.40
6018;DHT22;3037;51.068;13.780;2023-07-13T01:10:37;20.20;57.10
6018;DHT22;3037;51.068;13.780;2023-07-13T01:13:10;19.90;99.00
6018;DHT22;3037;51.068;13.780;2023-07-13T01:15:45;19.70;99.90
6018;DHT22;3037;51.068;13.780;2023-07-13T01:18:22;19.50;99.90
6018;DHT22;3037;51.068;13.780;2023-07-13T01:21:02;19.40;99.90
6018;DHT22;3037;51.068;13.780;2023-07-13T01:23:29;19.40;99.90
6018;DHT22;3037;51.068;13.780;2023-07-13T01:25:55;19.20;99.90
6018;DHT22;3037;51.068;13.780;2023-07-13T01:28:22;19.30;99.90
6018;DHT22;3037;51.068;13.780;2023-07-13T01:30:48;19.20;99.90
6018;DHT22;3037;51.068;13.780;2023-07-13T01:33:17;19.10;99.90
6018;DHT22;3037;51.068;13.780;2023-07-13T01:35:47;19.10;99.90
6018;DHT22;3037;51.068;13.780;2023-07-13T01:38:15;19.10;99.90
6018;DHT22;3037;51.068;13.780;2023-07-13T01:40:41;19.10;99.90
6018;DHT22;3037;51.068;13.780;2023-07-13T01:43:07;19.10;99.90
6018;DHT22;3037;51.068;13.780;2023-07-13T01:45:33;19.10;99.90
6018;DHT22;3037;51.068;13.780;2023-07-13T01:47:58;19.00;99.90
6018;DHT22;3037;51.068;13.780;2023-07-13T01:50:25;19.00;99.90
6018;DHT22;3037;51.068;13.780;2023-07-13T01:52:50;19.00;99.90
6018;DHT22;3037;51.068;13.780;2023-07-13T01:55:16;19.00;99.90
6018;DHT22;3037;51.068;13.780;2023-07-13T01:57:41;19.00;99.90
6018;DHT22;3037;51.068;13.780;2023-07-13T02:00:09;19.00;99.90
6018;DHT22;3037;51.068;13.780;2023-07-13T02:02:35;18.80;99.90
6018;DHT22;3037;51.068;13.780;2023-07-13T02:05:01;18.70;99.90
6018;DHT22;3037;51.068;13.780;2023-07-13T02:07:26;18.80;99.90
6018;DHT22;3037;51.068;13.780;2023-07-13T02:09:52;18.70;99.90
6018;DHT22;3037;51.068;13.780;2023-07-13T02:12:17;18.50;99.90
6018;DHT22;3037;51.068;13.780;2023-07-13T02:14:43;18.50;99.90
6018;DHT22;3037;51.068;13.780;2023-07-13T02:17:10;18.60;99.90
6018;DHT22;3037;51.068;13.780;2023-07-13T02:19:35;18.40;99.90
6018;DHT22;3037;51.068;13.780;2023-07-13T02:22:01;18.30;99.90
6018;DHT22;3037;51.068;13.780;2023-07-13T02:24:27;18.20;99.90
6018;DHT22;3037;51.068;13.780;2023-07-13T02:26:53;18.40;99.90
6018;DHT22;3037;51.068;13.780;2023-07-13T02:29:18;18.30;99.90
6018;DHT22;3037;51.068;13.780;2023-07-13T02:31:44;18.20;99.90
6018;DHT22;3037;51.068;13.780;2023-07-13T02:34:09;18.20;99.90
6018;DHT22;3037;51.068;13.780;2023-07-13T02:36:35;18.30;99.90
6018;DHT22;3037;51.068;13.780;2023-07-13T02:39:02;18.20;99.90
6018;DHT22;3037;51.068;13.780;2023-07-13T02:41:28;18.30;99.90
6018;DHT22;3037;51.068;13.780;2023-07-13T02:43:54;18.20;99.90
6018;DHT22;3037;51.068;13.780;2023-07-13T02:46:28;18.30;99.90
6018;DHT22;3037;51.068;13.780;2023-07-13T02:48:53;18.20;99.90
6018;DHT22;3037;51.068;13.780;2023-07-13T02:51:19;18.30;99.90
6018;DHT22;3037;51.068;13.780;2023-07-13T02:53:45;18.20;99.90
6018;DHT22;3037;51.068;13.780;2023-07-13T02:56:10;18.20;99.90
6018;DHT22;3037;51.068;13.780;2023-07-13T02:58:36;18.20;99.90
6018;DHT22;3037;51.068;13.780;2023-07-13T03:01:07;18.20;99.90
6018;DHT22;3037;51.068;13.780;2023-07-13T03:03:34;18.10;99.90
6018;DHT22;3037;51.068;13.780;2023-07-13T03:06:00;18.20;99.90
6018;DHT22;3037;51.068;13.780;2023-07-13T03:08:27;18.10;99.90
6018;DHT22;3037;51.068;13.780;2023-07-13T03:11:05;18.10;99.90
6018;DHT22;3037;51.068;13.780;2023-07-13T03:13:31;18.10;99.90
6018;DHT22;3037;51.068;13.780;2023-07-13T03:15:57;18.10;99.90
6018;DHT22;3037;51.068;13.780;2023-07-13T03:18:22;18.20;99.90
6018;DHT22;3037;51.068;13.780;2023-07-13T03:20:51;18.10;99.90
6018;DHT22;3037;51.068;13.780;2023-07-13T03:23:17;18.10;99.90
6018;DHT22;3037;51.068;13.780;2023-07-13T03:25:43;18.10;99.90
6018;DHT22;3037;51.068;13.780;2023-07-13T03:28:10;18.10;99.90
6018;DHT22;3037;51.068;13.780;2023-07-13T03:30:36;18.20;99.90
6018;DHT22;3037;51.068;13.780;2023-07-13T03:33:01;18.10;99.90
6018;DHT22;3037;51.068;13.780;2023-07-13T03:35:27;18.10;99.90
6018;DHT22;3037;51.068;13.780;2023-07-13T03:37:52;18.10;99.90
6018;DHT22;3037;51.068;13.780;2023-07-13T03:40:18;18.10;99.90
6018;DHT22;3037;51.068;13.780;2023-07-13T03:42:43;18.10;99.90
6018;DHT22;3037;51.068;13.780;2023-07-13T03:45:09;18.10;99.90
6018;DHT22;3037;51.068;13.780;2023-07-13T03:47:34;18.20;99.90
6018;DHT22;3037;51.068;13.780;2023-07-13T03:50:00;18.20;99.90
6018;DHT22;3037;51.068;13.780;2023-07-13T03:52:25;18.10;99.90
6018;DHT22;3037;51.068;13.780;2023-07-13T03:54:51;18.20;99.90
6018;DHT22;3037;51.068;13.780;2023-07-13T03:57:18;18.20;99.90
6018;DHT22;3037;51.068;13.780;2023-07-13T03:59:43;18.10;99.90
6018;DHT22;3037;51.068;13.780;2023-07-13T04:02:09;18.20;99.90
6018;DHT22;3037;51.068;13.780;2023-07-13T04:04:35;18.30;99.90
6018;DHT22;3037;51.068;13.780;2023-07-13T04:07:00;18.30;99.90
6018;DHT22;3037;51.068;13.780;2023-07-13T04:09:26;18.40;99.90
6018;DHT22;3037;51.068;13.780;2023-07-13T04:11:52;18.40;99.90
6018;DHT22;3037;51.068;13.780;2023-07-13T04:14:17;18.50;99.90
6018;DHT22;3037;51.068;13.780;2023-07-13T04:16:43;18.50;99.90
6018;DHT22;3037;51.068;13.780;2023-07-13T04:19:10;18.70;99.90
6018;DHT22;3037;51.068;13.780;2023-07-13T04:21:36;18.80;99.90
6018;DHT22;3037;51.068;13.780;2023-07-13T04:24:01;19.00;99.90
6018;DHT22;3037;51.068;13.780;2023-07-13T04:26:28;19.10;99.90
6018;DHT22;3037;51.068;13.780;2023-07-13T04:28:53;19.20;99.90
6018;DHT22;3037;51.068;13.780;2023-07-13T04:31:19;19.00;99.90
6018;DHT22;3037;51.068;13.780;2023-07-13T04:33:45;19.10;99.90
6018;DHT22;3037;51.068;13.780;2023-07-13T04:36:11;19.20;99.90
6018;DHT22;3037;51.068;13.780;2023-07-13T04:38:36;19.10;99.90
6018;DHT22;3037;51.068;13.780;2023-07-13T04:41:04;19.00;99.90
6018;DHT22;3037;51.068;13.780;2023-07-13T04:43:32;18.90;99.90
6018;DHT22;3037;51.068;13.780;2023-07-13T04:46:06;19.00;99.90
6018;DHT22;3037;51.068;13.780;2023-07-13T04:48:32;18.90;99.90
6018;DHT22;3037;51.068;13.780;2023-07-13T04:50:59;18.90;99.90
6018;DHT22;3037;51.068;13.780;2023-07-13T04:53:26;18.80;99.90
6018;DHT22;3037;51.068;13.780;2023-07-13T04:55:52;19.00;99.90
6018;DHT22;3037;51.068;13.780;2023-07-13T04:58:17;19.00;99.90
6018;DHT22;3037;51.068;13.780;2023-07-13T05:00:43;19.10;99.90
6018;DHT22;3037;51.068;13.780;2023-07-13T05:03:08;19.40;99.90
6018;DHT22;3037;51.068;13.780;2023-07-13T05:05:34;19.60;99.90
6018;DHT22;3037;51.068;13.780;2023-07-13T05:08:00;19.80;99.90
6018;DHT22;3037;51.068;13.780;2023-07-13T05:10:25;20.00;99.90
6018;DHT22;3037;51.068;13.780;2023-07-13T05:12:51;20.00;99.90
6018;DHT22;3037;51.068;13.780;2023-07-13T05:15:17;20.10;99.90
6018;DHT22;3037;51.068;13.780;2023-07-13T05:17:46;19.90;99.90
6018;DHT22;3037;51.068;13.780;2023-07-13T05:20:12;20.00;99.90
6018;DHT22;3037;51.068;13.780;2023-07-13T05:22:37;19.90;99.90
6018;DHT22;3037;51.068;13.780;2023-07-13T05:25:07;20.00;99.90
6018;DHT22;3037;51.068;13.780;2023-07-13T05:27:34;20.20;99.90
6018;DHT22;3037;51.068;13.780;2023-07-13T05:30:00;20.40;99.90
6018;DHT22;3037;51.068;13.780;2023-07-13T05:32:26;20.40;99.90
6018;DHT22;3037;51.068;13.780;2023-07-13T05:34:51;20.60;99.90
6018;DHT22;3037;51.068;13.780;2023-07-13T05:37:17;20.90;99.90
6018;DHT22;3037;51.068;13.780;2023-07-13T05:39:43;21.00;99.90
6018;DHT22;3037;51.068;13.780;2023-07-13T05:42:08;20.80;99.90
6018;DHT22;3037;51.068;13.780;2023-07-13T05:44:34;20.80;99.90
6018;DHT22;3037;51.068;13.780;2023-07-13T05:46:59;20.90;99.90
6018;DHT22;3037;51.068;13.780;2023-07-13T05:49:25;20.90;99.90
6018;DHT22;3037;51.068;13.780;2023-07-13T05:51:50;21.10;99.90
6018;DHT22;3037;51.068;13.780;2023-07-13T05:54:16;20.90;99.90
6018;DHT22;3037;51.068;13.780;2023-07-13T05:56:41;21.10;99.90
6018;DHT22;3037;51.068;13.780;2023-07-13T05:59:07;21.50;99.90
6018;DHT22;3037;51.068;13.780;2023-07-13T06:01:33;22.80;97.50
6018;DHT22;3037;51.068;13.780;2023-07-13T06:03:58;23.60;89.10
6018;DHT22;3037;51.068;13.780;2023-07-13T06:06:24;25.00;63.10
6018;DHT22;3037;51.068;13.780;2023-07-13T06:08:49;25.30;53.40
6018;DHT22;3037;51.068;13.780;2023-07-13T06:11:21;25.60;45.90
6018;DHT22;3037;51.068;13.780;2023-07-13T06:13:47;26.20;37.30
6018;DHT22;3037;51.068;13.780;2023-07-13T06:16:14;26.10;25.90
6018;DHT22;3037;51.068;13.780;2023-07-13T06:18:40;26.10;14.40
6018;DHT22;3037;51.068;13.780;2023-07-13T06:21:17;25.80;13.50
6018;DHT22;3037;51.068;13.780;2023-07-13T06:23:43;25.60;16.30
6018;DHT22;3037;51.068;13.780;2023-07-13T06:26:10;26.20;13.00
6018;DHT22;3037;51.068;13.780;2023-07-13T06:28:37;25.80;16.10
6018;DHT22;3037;51.068;13.780;2023-07-13T06:31:08;25.60;19.20
6018;DHT22;3037;51.068;13.780;2023-07-13T06:33:34;26.00;17.00
6018;DHT22;3037;51.068;13.780;2023-07-13T06:36:02;25.70;16.40
6018;DHT22;3037;51.068;13.780;2023-07-13T06:38:27;28.00;1.70
6018;DHT22;3037;51.068;13.780;2023-07-13T06:40:53;28.80;1.00
6018;DHT22;3037;51.068;13.780;2023-07-13T06:43:18;29.60;1.00
6018;DHT22;3037;51.068;13.780;2023-07-13T06:45:46;30.70;1.00
6018;DHT22;3037;51.068;13.780;2023-07-13T06:48:13;31.80;1.00
6018;DHT22;3037;51.068;13.780;2023-07-13T06:50:38;32.70;1.00
6018;DHT22;3037;51.068;13.780;2023-07-13T06:53:04;32.10;1.00
6018;DHT22;3037;51.068;13.780;2023-07-13T06:55:29;33.10;1.00
6018;DHT22;3037;51.068;13.780;2023-07-13T06:57:55;33.30;1.00
6018;DHT22;3037;51.068;13.780;2023-07-13T07:00:20;33.00;1.00
6018;DHT22;3037;51.068;13.780;2023-07-13T07:02:46;31.70;1.00
6018;DHT22;3037;51.068;13.780;2023-07-13T07:05:11;29.40;1.00
6018;DHT22;3037;51.068;13.780;2023-07-13T07:07:37;28.20;1.00
6018;DHT22;3037;51.068;13.780;2023-07-13T07:10:02;27.80;1.00
6018;DHT22;3037;51.068;13.780;2023-07-13T07:12:28;27.80;1.00
6018;DHT22;3037;51.068;13.780;2023-07-13T07:14:54;28.50;1.00
6018;DHT22;3037;51.068;13.780;2023-07-13T07:17:19;30.80;1.00
6018;DHT22;3037;51.068;13.780;2023-07-13T07:19:45;29.80;1.00
6018;DHT22;3037;51.068;13.780;2023-07-13T07:22:11;31.40;1.00
6018;DHT22;3037;51.068;13.780;2023-07-13T07:24:36;32.60;1.00
6018;DHT22;3037;51.068;13.780;2023-07-13T07:27:02;33.50;1.00
6018;DHT22;3037;51.068;13.780;2023-07-13T07:29:27;32.80;1.00
6018;DHT22;3037;51.068;13.780;2023-07-13T07:31:53;34.30;1.00
6018;DHT22;3037;51.068;13.780;2023-07-13T07:34:19;33.10;1.00
6018;DHT22;3037;51.068;13.780;2023-07-13T07:36:45;32.00;1.00
6018;DHT22;3037;51.068;13.780;2023-07-13T07:39:10;30.90;1.00
6018;DHT22;3037;51.068;13.780;2023-07-13T07:41:37;32.70;1.00
6018;DHT22;3037;51.068;13.780;2023-07-13T07:44:02;34.00;1.00
6018;DHT22;3037;51.068;13.780;2023-07-13T07:46:28;34.80;1.00
6018;DHT22;3037;51.068;13.780;2023-07-13T07:48:55;36.40;1.00
6018;DHT22;3037;51.068;13.780;2023-07-13T07:51:21;36.90;1.00
6018;DHT22;3037;51.068;13.780;2023-07-13T07:53:47;37.60;1.00
6018;DHT22;3037;51.068;13.780;2023-07-13T07:56:13;37.50;1.00
6018;DHT22;3037;51.068;13.780;2023-07-13T07:58:39;36.20;1.00
6018;DHT22;3037;51.068;13.780;2023-07-13T08:01:05;36.60;1.00
6018;DHT22;3037;51.068;13.780;2023-07-13T08:03:31;37.20;1.00
6018;DHT22;3037;51.068;13.780;2023-07-13T08:05:56;36.50;1.00
6018;DHT22;3037;51.068;13.780;2023-07-13T08:08:22;36.10;1.00
6018;DHT22;3037;51.068;13.780;2023-07-13T08:10:48;36.10;1.00
6018;DHT22;3037;51.068;13.780;2023-07-13T08:13:13;36.00;1.00
6018;DHT22;3037;51.068;13.780;2023-07-13T08:15:39;35.60;1.00
6018;DHT22;3037;51.068;13.780;2023-07-13T08:18:05;36.20;1.00
6018;DHT22;3037;51.068;13.780;2023-07-13T08:20:32;36.90;1.00
6018;DHT22;3037;51.068;13.780;2023-07-13T08:22:58;37.50;1.00
6018;DHT22;3037;51.068;13.780;2023-07-13T08:25:24;37.20;1.00
6018;DHT22;3037;51.068;13.780;2023-07-13T08:27:49;35.80;1.00
6018;DHT22;3037;51.068;13.780;2023-07-13T08:30:15;36.70;1.00
6018;DHT22;3037;51.068;13.780;2023-07-13T08:32:40;37.90;1.00
6018;DHT22;3037;51.068;13.780;2023-07-13T08:35:06;38.60;1.00
6018;DHT22;3037;51.068;13.780;2023-07-13T08:37:32;39.00;1.00
6018;DHT22;3037;51.068;13.780;2023-07-13T08:39:58;38.60;1.00
6018;DHT22;3037;51.068;13.780;2023-07-13T08:42:34;39.60;1.00
6018;DHT22;3037;51.068;13.780;2023-07-13T08:45:11;39.70;1.00
6018;DHT22;3037;51.068;13.780;2023-07-13T08:47:42;38.30;1.00
6018;DHT22;3037;51.068;13.780;2023-07-13T08:50:13;37.10;1.00
6018;DHT22;3037;51.068;13.780;2023-07-13T08:52:42;35.20;1.00
6018;DHT22;3037;51.068;13.780;2023-07-13T08:55:18;35.50;1.00
6018;DHT22;3037;51.068;13.780;2023-07-13T08:57:50;36.10;1.00
6018;DHT22;3037;51.068;13.780;2023-07-13T09:00:18;35.30;1.00
6018;DHT22;3037;51.068;13.780;2023-07-13T09:02:59;34.70;1.00
6018;DHT22;3037;51.068;13.780;2023-07-13T09:05:40;33.80;1.00
6018;DHT22;3037;51.068;13.780;2023-07-13T09:11:03;31.60;1.00
6018;DHT22;3037;51.068;13.780;2023-07-13T09:13:46;32.00;1.00
6018;DHT22;3037;51.068;13.780;2023-07-13T09:16:14;31.80;1.00
6018;DHT22;3037;51.068;13.780;2023-07-13T09:18:49;33.10;1.00
6018;DHT22;3037;51.068;13.780;2023-07-13T09:21:18;34.20;1.00
6018;DHT22;3037;51.068;13.780;2023-07-13T09:23:47;33.70;1.00
6018;DHT22;3037;51.068;13.780;2023-07-13T09:26:18;33.40;1.00
6018;DHT22;3037;51.068;13.780;2023-07-13T09:28:47;34.50;1.00
6018;DHT22;3037;51.068;13.780;2023-07-13T09:31:26;34.50;1.00
6018;DHT22;3037;51.068;13.780;2023-07-13T09:33:54;34.80;1.00
6018;DHT22;3037;51.068;13.780;2023-07-13T09:36:21;34.20;1.00
6018;DHT22;3037;51.068;13.780;2023-07-13T09:38:59;33.40;1.00
6018;DHT22;3037;51.068;13.780;2023-07-13T09:44:39;33.40;1.00
6018;DHT22;3037;51.068;13.780;2023-07-13T09:47:20;32.50;1.00
6018;DHT22;3037;51.068;13.780;2023-07-13T09:49:54;33.00;1.00
6018;DHT22;3037;51.068;13.780;2023-07-13T09:52:20;33.10;1.00
6018;DHT22;3037;51.068;13.780;2023-07-13T09:54:49;31.60;1.00
6018;DHT22;3037;51.068;13.780;2023-07-13T09:57:22;31.10;1.00
6018;DHT22;3037;51.068;13.780;2023-07-13T09:59:50;30.50;1.00
6018;DHT22;3037;51.068;13.780;2023-07-13T10:04:57;33.60;1.00
6018;DHT22;3037;51.068;13.780;2023-07-13T10:07:24;34.10;1.00
6018;DHT22;3037;51.068;13.780;2023-07-13T10:09:54;34.20;1.00
6018;DHT22;3037;51.068;13.780;2023-07-13T10:12:20;35.20;1.00
6018;DHT22;3037;51.068;13.780;2023-07-13T10:14:46;34.50;1.00
6018;DHT22;3037;51.068;13.780;2023-07-13T10:17:24;34.00;1.00
6018;DHT22;3037;51.068;13.780;2023-07-13T10:19:51;33.10;1.00
6018;DHT22;3037;51.068;13.780;2023-07-13T10:23:12;32.30;1.00
6018;DHT22;3037;51.068;13.780;2023-07-13T10:25:36;31.90;1.00
6018;DHT22;3037;51.068;13.780;2023-07-13T10:28:27;31.40;1.00
6018;DHT22;3037;51.068;13.780;2023-07-13T10:30:54;31.00;1.00
6018;DHT22;3037;51.068;13.780;2023-07-13T10:33:21;30.90;1.00
6018;DHT22;3037;51.068;13.780;2023-07-13T10:35:48;31.00;1.00
6018;DHT22;3037;51.068;13.780;2023-07-13T10:38:20;31.40;1.00
6018;DHT22;3037;51.068;13.780;2023-07-13T10:40:57;31.50;1.00
6018;DHT22;3037;51.068;13.780;2023-07-13T10:43:27;31.80;1.00
6018;DHT22;3037;51.068;13.780;2023-07-13T10:45:54;31.30;1.00
6018;DHT22;3037;51.068;13.780;2023-07-13T10:48:22;32.10;1.00
6018;DHT22;3037;51.068;13.780;2023-07-13T10:50:51;33.10;1.00
6018;DHT22;3037;51.068;13.780;2023-07-13T10:53:28;33.70;1.00
6018;DHT22;3037;51.068;13.780;2023-07-13T10:56:00;33.60;1.00
6018;DHT22;3037;51.068;13.780;2023-07-13T10:58:34;32.80;1.00
6018;DHT22;3037;51.068;13.780;2023-07-13T11:01:12;33.10;1.00
6018;DHT22;3037;51.068;13.780;2023-07-13T11:03:55;32.80;1.00
6018;DHT22;3037;51.068;13.780;2023-07-13T11:08:57;32.40;1.00
6018;DHT22;3037;51.068;13.780;2023-07-13T11:13:57;31.60;1.00
6018;DHT22;3037;51.068;13.780;2023-07-13T11:21:28;33.20;1.00
6018;DHT22;3037;51.068;13.780;2023-07-13T11:24:28;32.30;1.00
6018;DHT22;3037;51.068;13.780;2023-07-13T11:26:55;33.00;1.00
6018;DHT22;3037;51.068;13.780;2023-07-13T11:31:54;33.00;1.00
6018;DHT22;3037;51.068;13.780;2023-07-13T11:34:38;32.70;1.00
6018;DHT22;3037;51.068;13.780;2023-07-13T11:37:11;32.60;1.00
6018;DHT22;3037;51.068;13.780;2023-07-13T11:39:40;32.40;1.00
6018;DHT22;3037;51.068;13.780;2023-07-13T11:42:12;32.30;1.00
6018;DHT22;3037;51.068;13.780;2023-07-13T11:44:47;32.60;1.00
6018;DHT22;3037;51.068;13.780;2023-07-13T11:47:21;32.90;1.00
6018;DHT22;3037;51.068;13.780;2023-07-13T11:49:52;32.80;1.00
6018;DHT22;3037;51.068;13.780;2023-07-13T11:52:23;32.40;1.00
6018;DHT22;3037;51.068;13.780;2023-07-13T11:54:55;32.30;1.00
6018;DHT22;3037;51.068;13.780;2023-07-13T11:57:31;32.90;1.00
6018;DHT22;3037;51.068;13.780;2023-07-13T12:00:02;32.00;1.00
6018;DHT22;3037;51.068;13.780;2023-07-13T12:02:47;31.00;1.00
6018;DHT22;3037;51.068;13.780;2023-07-13T12:05:16;31.00;1.00
6018;DHT22;3037;51.068;13.780;2023-07-13T12:07:43;31.30;1.00
6018;DHT22;3037;51.068;13.780;2023-07-13T12:12:48;32.40;1.00
6018;DHT22;3037;51.068;13.780;2023-07-13T12:15:14;32.20;1.00
6018;DHT22;3037;51.068;13.780;2023-07-13T12:17:41;32.70;1.00
6018;DHT22;3037;51.068;13.780;2023-07-13T12:20:34;32.60;1.00
6018;DHT22;3037;51.068;13.780;2023-07-13T12:23:00;32.50;1.00
6018;DHT22;3037;51.068;13.780;2023-07-13T12:25:28;32.90;1.00
6018;DHT22;3037;51.068;13.780;2023-07-13T12:27:55;33.00;1.00
6018;DHT22;3037;51.068;13.780;2023-07-13T12:30:30;32.70;1.00
6018;DHT22;3037;51.068;13.780;2023-07-13T12:33:07;32.80;1.00
6018;DHT22;3037;51.068;13.780;2023-07-13T12:35:47;33.20;1.00
6018;DHT22;3037;51.068;13.780;2023-07-13T12:38:16;32.60;1.00
6018;DHT22;3037;51.068;13.780;2023-07-13T12:40:41;32.70;1.00
6018;DHT22;3037;51.068;13.780;2023-07-13T12:43:14;32.70;1.00
6018;DHT22;3037;51.068;13.780;2023-07-13T12:45:55;32.70;1.00
6018;DHT22;3037;51.068;13.780;2023-07-13T12:48:21;32.60;1.00
6018;DHT22;3037;51.068;13.780;2023-07-13T12:50:48;31.90;1.00
6018;DHT22;3037;51.068;13.780;2023-07-13T12:53:20;31.50;1.00
6018;DHT22;3037;51.068;13.780;2023-07-13T12:55:48;30.60;1.00
6018;DHT22;3037;51.068;13.780;2023-07-13T12:58:38;30.70;1.00
6018;DHT22;3037;51.068;13.780;2023-07-13T13:01:05;31.00;1.00
6018;DHT22;3037;51.068;13.780;2023-07-13T13:03:32;31.20;1.00
6018;DHT22;3037;51.068;13.780;2023-07-13T13:08:40;31.60;1.00
6018;DHT22;3037;51.068;13.780;2023-07-13T13:11:08;31.70;1.00
6018;DHT22;3037;51.068;13.780;2023-07-13T13:13:34;31.70;1.00
6018;DHT22;3037;51.068;13.780;2023-07-13T13:16:17;31.60;1.00
6018;DHT22;3037;51.068;13.780;2023-07-13T13:18:44;31.50;1.00
6018;DHT22;3037;51.068;13.780;2023-07-13T13:21:10;31.60;1.00
6018;DHT22;3037;51.068;13.780;2023-07-13T13:23:36;31.70;1.00
6018;DHT22;3037;51.068;13.780;2023-07-13T13:26:02;31.40;1.00
6018;DHT22;3037;51.068;13.780;2023-07-13T13:28:29;31.20;1.00
6018;DHT22;3037;51.068;13.780;2023-07-13T13:30:54;31.00;1.00
6018;DHT22;3037;51.068;13.780;2023-07-13T13:33:21;31.80;1.00
6018;DHT22;3037;51.068;13.780;2023-07-13T13:35:47;31.70;1.00
6018;DHT22;3037;51.068;13.780;2023-07-13T13:38:19;31.20;1.00
6018;DHT22;3037;51.068;13.780;2023-07-13T13:40:45;31.30;1.00
6018;DHT22;3037;51.068;13.780;2023-07-13T13:43:16;31.60;1.00
6018;DHT22;3037;51.068;13.780;2023-07-13T13:45:43;31.90;1.00
6018;DHT22;3037;51.068;13.780;2023-07-13T13:48:31;31.90;1.00
6018;DHT22;3037;51.068;13.780;2023-07-13T13:50:58;31.20;1.00
6018;DHT22;3037;51.068;13.780;2023-07-13T13:53:25;31.30;1.00
6018;DHT22;3037;51.068;13.780;2023-07-13T13:55:51;31.50;1.00
6018;DHT22;3037;51.068;13.780;2023-07-13T13:58:20;31.70;1.00
6018;DHT22;3037;51.068;13.780;2023-07-13T14:00:47;31.20;1.00
6018;DHT22;3037;51.068;13.780;2023-07-13T14:03:20;30.80;1.00
6018;DHT22;3037;51.068;13.780;2023-07-13T14:05:47;30.60;1.00
6018;DHT22;3037;51.068;13.780;2023-07-13T14:08:19;30.70;1.00
6018;DHT22;3037;51.068;13.780;2023-07-13T14:10:47;30.50;1.00
6018;DHT22;3037;51.068;13.780;2023-07-13T14:13:20;30.70;1.00
6018;DHT22;3037;51.068;13.780;2023-07-13T14:15:47;30.90;1.00
6018;DHT22;3037;51.068;13.780;2023-07-13T14:18:13;30.60;1.00
6018;DHT22;3037;51.068;13.780;2023-07-13T14:20:43;30.50;1.00
6018;DHT22;3037;51.068;13.780;2023-07-13T14:23:09;31.00;1.00
6018;DHT22;3037;51.068;13.780;2023-07-13T14:25:35;31.10;1.00
6018;DHT22;3037;51.068;13.780;2023-07-13T14:30:45;30.90;1.00
6018;DHT22;3037;51.068;13.780;2023-07-13T14:33:12;30.70;1.00
6018;DHT22;3037;51.068;13.780;2023-07-13T14:35:38;30.90;1.00
6018;DHT22;3037;51.068;13.780;2023-07-13T14:38:04;30.90;1.00
6018;DHT22;3037;51.068;13.780;2023-07-13T14:40:31;30.80;1.00
6018;DHT22;3037;51.068;13.780;2023-07-13T14:42:58;30.30;1.00
6018;DHT22;3037;51.068;13.780;2023-07-13T14:45:24;30.60;1.00
6018;DHT22;3037;51.068;13.780;2023-07-13T14:47:50;30.50;1.00
6018;DHT22;3037;51.068;13.780;2023-07-13T14:50:22;30.60;1.00
6018;DHT22;3037;51.068;13.780;2023-07-13T14:52:49;30.70;1.00
6018;DHT22;3037;51.068;13.780;2023-07-13T14:55:18;30.30;1.00
6018;DHT22;3037;51.068;13.780;2023-07-13T14:57:43;30.50;1.00
6018;DHT22;3037;51.068;13.780;2023-07-13T15:02:39;30.30;1.00
6018;DHT22;3037;51.068;13.780;2023-07-13T15:05:20;30.10;1.00
6018;DHT22;3037;51.068;13.780;2023-07-13T15:07:47;29.10;1.00
6018;DHT22;3037;51.068;13.780;2023-07-13T15:10:18;29.20;1.00
6018;DHT22;3037;51.068;13.780;2023-07-13T15:12:44;29.30;1.00
6018;DHT22;3037;51.068;13.780;2023-07-13T15:15:09;29.60;1.00
6018;DHT22;3037;51.068;13.780;2023-07-13T15:17:38;30.10;1.00
6018;DHT22;3037;51.068;13.780;2023-07-13T15:20:27;30.40;1.00
6018;DHT22;3037;51.068;13.780;2023-07-13T15:22:54;30.50;1.00
6018;DHT22;3037;51.068;13.780;2023-07-13T15:25:25;30.30;1.00
6018;DHT22;3037;51.068;13.780;2023-07-13T15:27:52;30.00;1.00
6018;DHT22;3037;51.068;13.780;2023-07-13T15:30:18;30.10;1.00
6018;DHT22;3037;51.068;13.780;2023-07-13T15:32:45;30.10;1.00
6018;DHT22;3037;51.068;13.780;2023-07-13T15:35:22;29.40;1.00
6018;DHT22;3037;51.068;13.780;2023-07-13T15:37:48;29.80;1.00
6018;DHT22;3037;51.068;13.780;2023-07-13T15:40:15;29.60;1.00
6018;DHT22;3037;51.068;13.780;2023-07-13T15:42:42;29.20;1.00
6018;DHT22;3037;51.068;13.780;2023-07-13T15:45:23;29.10;1.00
6018;DHT22;3037;51.068;13.780;2023-07-13T15:47:50;29.40;1.00
6018;DHT22;3037;51.068;13.780;2023-07-13T15:50:19;29.40;1.00
6018;DHT22;3037;51.068;13.780;2023-07-13T15:52:52;29.50;1.00
6018;DHT22;3037;51.068;13.780;2023-07-13T15:55:18;29.40;1.00
6018;DHT22;3037;51.068;13.780;2023-07-13T15:57:48;29.40;1.00
6018;DHT22;3037;51.068;13.780;2023-07-13T16:00:26;29.10;1.00
6018;DHT22;3037;51.068;13.780;2023-07-13T16:02:52;29.20;1.00
6018;DHT22;3037;51.068;13.780;2023-07-13T16:05:20;28.90;1.00
6018;DHT22;3037;51.068;13.780;2023-07-13T16:07:48;28.80;1.00
6018;DHT22;3037;51.068;13.780;2023-07-13T16:10:22;29.20;1.00
6018;DHT22;3037;51.068;13.780;2023-07-13T16:12:48;29.30;1.00
6018;DHT22;3037;51.068;13.780;2023-07-13T16:15:17;29.30;1.00
6018;DHT22;3037;51.068;13.780;2023-07-13T16:17:44;29.10;1.00
6018;DHT22;3037;51.068;13.780;2023-07-13T16:20:11;29.10;1.00
6018;DHT22;3037;51.068;13.780;2023-07-13T16:22:38;29.00;1.00
6018;DHT22;3037;51.068;13.780;2023-07-13T16:25:19;28.80;1.00
6018;DHT22;3037;51.068;13.780;2023-07-13T16:27:46;28.80;1.00
6018;DHT22;3037;51.068;13.780;2023-07-13T16:30:23;28.60;1.00
6018;DHT22;3037;51.068;13.780;2023-07-13T16:32:55;28.50;1.00
6018;DHT22;3037;51.068;13.780;2023-07-13T16:35:22;28.60;1.00
6018;DHT22;3037;51.068;13.780;2023-07-13T16:37:48;28.30;1.00
6018;DHT22;3037;51.068;13.780;2023-07-13T16:40:23;28.20;1.00